Terminal Aerodrome Forecast
Issued by NWS Tulsa, OK

Current Version | Previous Version | Text Only | Print | Product List | Glossary On
Versions: 1 2 3 4 5 6 7 8 9 10 11 12 13 14 15 16
234
FTUS44 KTSA 250520
TAFFSM
TAF
KFSM 250520Z 2506/2606 08006KT P6SM BKN100
      TEMPO 2506/2510 3SM TSRA BR BKN015CB
     FM251200 27005KT P6SM OVC025
     FM251800 27011KT P6SM OVC050=

USA.gov is the U.S. government's official web portal to all federal, state and local government web resources and services.